Wednesday, April 16, 2014
21:58 UTC
  |  Log In   |  Register Free
Airport Search:

Comanche County-City Airport
(KMKN)

Comanche County-City Airport Diagram
No Airport Diagram Available

FAA data valid effective April 3, 2014 until May 29, 2014 (unless otherwise noted).

 
 
 
 
 
 
 
 
 
 
 
 
 
 

Current Aviation Weather for Comanche County-City Airport (KMKN)

The most recent METAR observation for KMKN was updated at: 2055 UTC
METAR Summary (Translated METAR)
KMKN
162055Z AUTO 17017G24KT 10SM CLR 22/00 A2993 RMK AO2 T02150001
KBWD
(19.7 nm SW from KMKN)
162035Z AUTO 17014G22KT 10SM CLR 21/00 A2992 RMK AO2
TAF
No TAF information found within 50 nm of KMKN
  Airport Weather Conditions for KMKN

 Current Weather at MKN
70° F
Fair and Breezy
South winds at 20.7 mph
MKN NOAA Radar

Pressure: 29.94 in
Humidity: 24%
Wind: from the South at 20.7 gusting to 28.8 MPH (18 gusting to 25 KT)
Dew Point: 32.0°F
Visibility: 10.00 mi


Airport Weather Forecast for KMKN

Translated METAR and TAF for KMKN
Translated METAR for KMKN (2158 UTC 16 April 2014)
found at http://aviationweather.gov/adds/metars/
 
METAR text: KMKN 162135Z AUTO 16016G25KT 10SM CLR 22/02 A2991 RMK AO2 T02160015
Conditions at: KMKN (COMANCHE , TX, US) observed 2135 UTC 16 April 2014
Temperature: 21.6°C (71°F)
Dewpoint: 1.5°C (35°F) [RH = 26%]
Pressure (altimeter): 29.91 inches Hg (1013.0 mb)
Winds: from the SSE (160 degrees) at 18 MPH (16 knots; 8.3 m/s)
gusting to 29 MPH (25 knots; 13.0 m/s)
Visibility: 10 or more miles (16+ km)
Ceiling: at least 12,000 feet AGL
Clouds: sky clear below 12,000 feet AGL
Weather: automated observation with no human augmentation;
there may or may not be significant weather present at this time
Translated TAF for KMKN

There is no translated TAF available for this airport

Find All Airport Services Find A Hotel Find A Rental Car Find A Golf Course Find A Restaurant $100 Hamburger



FBO's on the Field
FBO Company Facility Photos Services Transportation Aviation Fuel Prices: Prices include tax
Catering Weather Repair Courtesy Rental Type 100LL JetA JetA+ MOGAS 8087
 
Comanche County/City Airport

This FBO has not yet been rated
FS:Avfuel
Last Updated: Mar-14
Login to update fuel prices
SS:
Contact Comanche County/City AirportMore FBO Information
 
Add another FBO Facility Photos Catering Weather Repair Courtesy Rental Type 100LL JetA JetA+ MOGAS 8087
Services Transportation Aviation Fuel Prices: Prices include tax


GlobalAir.com Airport Resource Center model-print
model-print
model-print
model-print